Strona główna
METAR-TAF:

METAR-TAF

Lotnisko :

Aeroflex-Andover Airport

Andover, New Jersey, Stany Zjednoczone

Szerokość geograficzna: 41-00-32N, Długość geograficzna: 074-44-12W, wysokość: 177 m

Aktualna obserwacja pogody

Raport powstał 1 godzina i 3 minut temu, godzina 21:54 UTC
Cisza
Temperatura 24°C
Wilgotność 44%
Ciśnienie 1012 hPa

METAR: K12N 302154Z AUTO 00000KT 24/11 A2987 RMK AO1 SLP108 T02440106

czas: 18:57 (22:57 UTC)


TAF: brakujący

Obserwacja i prognoza pogody dla ponad 4000 lotnisk (raport METAR i TAF).

Dostępne stacje oznaczono żółtymi i czerwonymi punktami na mapie.

Najedź kursorem aby zobaczyć nazwę stacji.

Kliknij aby zobaczyć obserwacje i prognozy pogody.

Aby zmienić mapę: kliknij na zielony przycisk z czarnym krzyżykiem, aby powiększyć; na zielony przycisk z myślnikiem, aby pomniejszyć; na zielone strzałki, aby przejść do map sąsiednich.


METAR-TAF: